Humidity-temperature Sensor

Selected Measurement Type: Air Temperature

 
Air Temperature [°C]     6 entries per hour
Showing data from 11/19/2022 (00:00:00 Z) to 11/18/2022 (00:01:00 Z)
Previous Next [ Day | 3-Days | 7-Days ]
First Last
Prev [ Day | 3-Days | 7-Days ] Next
First Last

Start Time:     :
End Time:     :     
Time (in GMT) :00 :50 :40 :30 :20 :10
Previous Next [ Day | 3-Days | 7-Days ]
First Last
Prev [ Day | 3-Days | 7-Days ] Next
First Last


123 => good data
MM => data is determined as missing
-- => data not received/configured
Back to Top Back to Top
11/19/2022 00:00 to 23:10 24.53 24.85 24.99 24.80 24.70 24.84
11/18/2022 23:00 to 22:10 24.73 24.59 24.68 24.55 24.46 24.58
11/18/2022 22:00 to 21:10 24.40 24.71 24.79 24.59 24.90 24.74
11/18/2022 21:00 to 20:10 24.75 24.95 25.03 25.08 25.04 25.18
11/18/2022 20:00 to 19:10 25.28 25.37 25.24 25.10 25.15 25.20
11/18/2022 19:00 to 18:10 25.28 25.05 25.08 24.98 25.13 25.12
11/18/2022 18:00 to 17:10 24.99 24.90 24.81 24.85 24.67 24.62
11/18/2022 17:00 to 16:10 24.79 24.98 24.71 24.76 24.74 24.54
11/18/2022 16:00 to 15:10 24.30 24.36 24.34 24.33 24.18 24.06
11/18/2022 15:00 to 14:10 24.09 24.23 24.14 23.94 24.04 24.05
11/18/2022 14:00 to 13:10 23.81 23.70 23.70 23.74 23.89 23.79
11/18/2022 13:00 to 12:10 24.15 23.99 23.93 23.73 23.99 24.15
11/18/2022 12:00 to 11:10 24.07 24.23 23.87 24.08 23.79 24.13
11/18/2022 11:00 to 10:10 24.17 24.24 24.10 24.25 24.22 24.40
11/18/2022 10:00 to 9:10 24.18 24.40 24.07 24.19 24.34 24.04
11/18/2022 09:00 to 8:10 24.12 24.08 24.11 24.08 23.97 24.01
11/18/2022 08:00 to 7:10 24.26 24.37 24.42 24.48 24.57 24.59
11/18/2022 07:00 to 6:10 24.84 24.64 24.90 24.87 24.96 24.75
11/18/2022 06:00 to 5:10 24.68 24.55 24.74 24.69 24.74 24.89
11/18/2022 05:00 to 4:10 24.76 24.71 25.09 24.81 25.02 24.89
11/18/2022 04:00 to 3:10 24.87 24.61 25.09 24.96 24.82 24.96
11/18/2022 03:00 to 2:10 24.88 25.02 25.10 25.15 24.94 25.07
11/18/2022 02:00 to 1:10 24.97 24.92 24.91 24.76 24.95 24.91
11/18/2022 01:00 to 0:10 24.89 24.87 24.87 24.91 25.02 24.88